Terminal Aerodrome Forecast
Issued by NWS Pueblo, CO

Home | Current Version | Previous Version | Text Only | Print | Product List | Glossary On
Versions: 1 2 3 4 5 6 7 8 9 10 11 12 13 14 15 16 17 18 19 20 21 22 23 24 25 26 27 28 29 30 31
000
FTUS45 KPUB 010520
TAFCOS
TAF
KCOS 010520Z 0106/0206 36015G25KT P6SM VCSH SCT080 SCT110 BKN150
     FM011000 01008KT P6SM SCT100 BKN150
     FM011800 06010KT P6SM SCT120 SCT200
     FM012100 17011KT P6SM VCTS SCT070CB BKN200
     FM012200 16012KT P6SM -TSRA BKN070CB OVC150
     FM020000 36015G30KT P6SM VCTS SCT080CB BKN120
     FM020300 33010KT P6SM SCT100 BKN150=

USA.gov is the U.S. government's official web portal to all federal, state and local government web resources and services.